Time;durP1;ratioP1;P1;durP2;ratioP2;P2;SDS_P1;SDS_P2;PMS_P1;PMS_P2;Temp;Humidity;BMP_temperature;BMP_pressure;BME280_temperature;BME280_humidity;BME280_pressure;Samples;Min_cycle;Max_cycle;Signal;HPM_P1;HPM_P2
2022/01/14 00:00:34;;;;;;;21.52;9.65;;;;;;;3.84;58.60;103352.69;5049521;28;20504;-75
2022/01/14 00:02:59;;;;;;;24.45;10.52;;;;;;;3.89;58.75;103352.88;5030778;28;20128;-75
2022/01/14 00:05:25;;;;;;;21.02;9.73;;;;;;;4.06;58.32;103342.63;5046108;28;20029;-75
2022/01/14 00:07:50;;;;;;;25.75;9.77;;;;;;;4.02;58.29;103342.38;5041294;28;20029;-75
2022/01/14 00:10:16;;;;;;;18.48;8.68;;;;;;;3.88;58.58;103348.53;5039376;28;20037;-75
2022/01/14 00:12:50;;;;;;;21.52;9.23;;;;;;;3.83;58.94;103345.75;5043021;28;20506;-75
2022/01/14 00:15:27;;;;;;;24.27;9.50;;;;;;;3.87;58.25;103345.13;5047326;28;20509;-75
2022/01/14 00:17:54;;;;;;;24.42;9.73;;;;;;;3.65;59.10;103343.19;5045538;28;20525;-75
2022/01/14 00:20:21;;;;;;;21.15;10.05;;;;;;;3.98;58.23;103337.88;5048010;28;20123;-75
2022/01/14 00:22:46;;;;;;;18.33;8.60;;;;;;;3.29;60.13;103335.38;5036282;28;20468;-75
2022/01/14 00:33:09;;;;;;;19.40;8.73;;;;;;;3.69;59.03;103313.38;5041450;28;20044;-75
2022/01/14 00:35:43;;;;;;;21.15;9.80;;;;;;;3.69;58.69;103318.53;5027044;28;20404;-75
2022/01/14 00:38:10;;;;;;;18.10;8.60;;;;;;;3.40;59.50;103319.66;5042464;28;20029;-75
2022/01/14 00:40:36;;;;;;;18.30;8.88;;;;;;;3.44;59.78;103313.00;5043683;28;20041;-75
2022/01/14 00:43:02;;;;;;;18.33;8.80;;;;;;;3.84;58.29;103319.25;5041549;28;20548;-75
2022/01/14 00:45:28;;;;;;;21.48;9.45;;;;;;;3.84;58.45;103320.94;5047471;28;20037;-75
2022/01/14 00:47:54;;;;;;;20.30;9.32;;;;;;;3.98;57.47;103322.47;5048226;28;20037;-75
2022/01/14 00:50:20;;;;;;;16.50;8.10;;;;;;;3.83;57.80;103320.06;5040813;28;20059;-75
2022/01/14 00:52:46;;;;;;;16.50;8.23;;;;;;;3.67;58.84;103318.44;5043192;28;20067;-75
2022/01/14 00:55:17;;;;;;;19.85;9.32;;;;;;;3.74;58.47;103306.75;5026716;28;20501;-75
2022/01/14 01:00:21;;;;;;;17.67;8.77;;;;;;;3.67;59.29;103305.59;5037699;28;20044;-75
2022/01/14 01:02:47;;;;;;;16.38;8.18;;;;;;;3.74;59.44;103309.34;5043014;28;20049;-75
2022/01/14 01:05:13;;;;;;;19.50;8.88;;;;;;;3.94;58.98;103307.69;5016528;28;20033;-75
2022/01/14 01:07:41;;;;;;;19.60;8.90;;;;;;;3.49;60.26;103312.41;5044404;28;20083;-75
2022/01/14 01:10:09;;;;;;;16.45;8.75;;;;;;;3.63;59.61;103310.53;5046435;28;20044;-75
2022/01/14 01:12:57;;;;;;;20.52;8.50;;;;;;;3.88;58.90;103305.72;5026205;28;20140;-75
2022/01/14 01:15:23;;;;;;;14.23;6.97;;;;;;;3.63;59.63;103305.38;5036035;28;20045;-75
2022/01/14 01:17:49;;;;;;;18.88;7.45;;;;;;;3.58;59.88;103307.72;5045955;28;20548;-75
2022/01/14 01:20:20;;;;;;;16.23;7.85;;;;;;;3.77;58.98;103307.78;5041567;28;20041;-75
2022/01/14 01:22:48;;;;;;;15.05;7.28;;;;;;;3.85;58.91;103304.69;5028497;28;20043;-75
2022/01/14 01:25:16;;;;;;;15.05;7.15;;;;;;;3.58;58.93;103300.00;5036475;28;20041;-76
2022/01/14 01:27:43;;;;;;;17.35;7.70;;;;;;;3.62;59.12;103299.34;5041961;28;20041;-75
2022/01/14 01:30:15;;;;;;;18.63;7.72;;;;;;;3.62;59.22;103296.78;5043624;28;20024;-75
2022/01/14 01:32:46;;;;;;;14.43;7.65;;;;;;;3.72;58.95;103291.25;5041476;28;20047;-75
2022/01/14 01:35:13;;;;;;;18.30;7.90;;;;;;;3.86;58.64;103291.03;5048387;28;20059;-75
2022/01/14 01:37:39;;;;;;;16.60;8.13;;;;;;;3.74;59.15;103291.34;5028986;28;20036;-75
2022/01/14 01:40:05;;;;;;;15.95;7.43;;;;;;;3.58;58.78;103292.28;5041110;28;20041;-75
2022/01/14 01:42:31;;;;;;;15.18;7.97;;;;;;;3.46;59.34;103284.00;5040570;28;20040;-75
2022/01/14 01:44:59;;;;;;;17.48;7.70;;;;;;;3.32;58.94;103279.00;5040488;28;20041;-75
2022/01/14 01:47:26;;;;;;;14.73;7.40;;;;;;;3.55;58.31;103274.16;5018675;28;20033;-75
2022/01/14 01:49:51;;;;;;;13.13;6.63;;;;;;;3.67;58.60;103279.00;5039146;28;20675;-75
2022/01/14 01:52:17;;;;;;;18.17;7.30;;;;;;;3.31;59.62;103280.69;5037762;28;20125;-75
2022/01/14 01:54:43;;;;;;;16.00;7.20;;;;;;;3.37;59.81;103275.00;5050046;28;20037;-75
2022/01/14 01:57:08;;;;;;;17.27;7.82;;;;;;;3.53;58.18;103269.75;5035030;28;20036;-75
2022/01/14 01:59:34;;;;;;;15.00;7.07;;;;;;;3.38;59.46;103267.34;5027836;28;20036;-75
2022/01/14 02:02:01;;;;;;;17.90;7.13;;;;;;;3.69;58.52;103270.53;5041654;28;20471;-75
2022/01/14 02:04:28;;;;;;;16.95;7.25;;;;;;;3.65;58.59;103270.34;5039747;28;20082;-75
2022/01/14 02:06:55;;;;;;;12.43;6.95;;;;;;;3.75;58.04;103268.25;5035216;28;20148;-75
2022/01/14 02:09:22;;;;;;;13.77;6.78;;;;;;;3.64;58.52;103268.56;5025166;28;20040;-75
2022/01/14 02:11:48;;;;;;;19.35;7.68;;;;;;;3.70;58.88;103266.28;5032883;28;20033;-75
2022/01/14 02:14:28;;;;;;;17.58;7.10;;;;;;;3.60;58.90;103261.53;5027916;28;20024;-75
2022/01/14 02:17:28;;;;;;;16.30;6.32;;;;;;;3.58;58.58;103255.44;5041857;28;20044;-75
2022/01/14 02:22:54;;;;;;;11.95;5.93;;;;;;;3.59;59.29;103263.22;5041155;28;20048;-75
2022/01/14 02:25:28;;;;;;;11.75;5.45;;;;;;;3.36;60.08;103265.50;5041137;28;20091;-75
2022/01/14 02:28:05;;;;;;;14.30;6.63;;;;;;;3.52;59.27;103263.75;5044103;28;20033;-75
2022/01/14 02:30:32;;;;;;;14.20;6.38;;;;;;;3.34;60.37;103260.28;5045385;28;20059;-75
2022/01/14 02:32:58;;;;;;;14.75;6.68;;;;;;;3.40;59.10;103255.44;5045313;28;20042;-75
2022/01/14 02:35:24;;;;;;;11.60;6.13;;;;;;;3.42;59.54;103247.81;5044949;28;20056;-76
2022/01/14 02:37:50;;;;;;;14.27;6.65;;;;;;;3.38;58.82;103245.91;5046058;28;20029;-75
2022/01/14 02:40:16;;;;;;;15.27;6.82;;;;;;;3.67;58.62;103253.28;5028926;28;20071;-75
2022/01/14 02:42:42;;;;;;;12.88;5.55;;;;;;;3.35;59.19;103259.50;5039319;28;20449;-75
2022/01/14 02:45:10;;;;;;;14.00;7.03;;;;;;;3.54;58.28;103254.44;5040103;28;20034;-75
2022/01/14 02:47:36;;;;;;;12.25;5.43;;;;;;;3.65;58.31;103257.50;5044650;28;20039;-76
2022/01/14 02:50:03;;;;;;;13.35;6.07;;;;;;;3.37;59.38;103257.88;5041405;28;20389;-75
2022/01/14 02:55:21;;;;;;;11.73;5.97;;;;;;;3.60;58.69;103261.53;5046843;28;20631;-75
2022/01/14 02:57:52;;;;;;;11.48;5.68;;;;;;;3.42;59.17;103259.00;5046597;28;20048;-75
2022/01/14 03:00:20;;;;;;;12.93;5.78;;;;;;;3.23;59.41;103254.66;5042202;28;20072;-75
2022/01/14 03:02:49;;;;;;;13.77;6.13;;;;;;;3.65;58.38;103247.22;5042766;28;20485;-75
2022/01/14 03:05:19;;;;;;;11.45;5.70;;;;;;;3.31;59.35;103255.00;5046614;28;20047;-75
2022/01/14 03:07:46;;;;;;;10.18;5.60;;;;;;;3.47;58.41;103251.47;5035972;28;20529;-75
2022/01/14 03:10:15;;;;;;;12.43;6.45;;;;;;;3.35;59.67;103249.22;5041458;28;20045;-75
2022/01/14 03:12:42;;;;;;;14.85;5.70;;;;;;;3.28;59.88;103234.31;5047094;28;20108;-75
2022/01/14 03:15:09;;;;;;;14.15;5.93;;;;;;;3.24;59.92;103241.00;5039122;28;20401;-75
2022/01/14 03:17:34;;;;;;;15.07;6.38;;;;;;;3.38;59.12;103246.78;5050261;28;20108;-75
2022/01/14 03:20:01;;;;;;;13.13;6.05;;;;;;;3.69;58.02;103236.28;5019479;28;20439;-75
2022/01/14 03:22:37;;;;;;;13.25;5.65;;;;;;;3.50;58.67;103239.66;5050498;28;21391;-75
2022/01/14 03:27:52;;;;;;;10.02;4.88;;;;;;;3.23;59.93;103246.06;5029361;28;20044;-75
2022/01/14 03:30:18;;;;;;;12.95;5.55;;;;;;;3.38;59.86;103244.22;5050303;28;20053;-75
2022/01/14 03:32:44;;;;;;;11.77;5.70;;;;;;;3.61;58.24;103242.72;5044559;28;20043;-76
2022/01/14 03:35:11;;;;;;;14.88;6.50;;;;;;;3.29;58.87;103246.34;5043791;28;20025;-75
2022/01/14 03:37:37;;;;;;;9.07;5.65;;;;;;;3.49;58.25;103242.16;5026414;28;20132;-75
2022/01/14 03:40:05;;;;;;;11.02;5.20;;;;;;;3.16;58.80;103238.84;5045685;28;20128;-75
2022/01/14 03:42:31;;;;;;;10.95;5.72;;;;;;;3.05;59.39;103240.03;5044462;28;20514;-75
2022/01/14 03:44:56;;;;;;;11.40;6.43;;;;;;;3.04;59.39;103240.84;5048770;28;20063;-75
2022/01/14 03:47:22;;;;;;;10.98;5.90;;;;;;;2.68;60.14;103240.75;5029459;28;20029;-76
2022/01/14 03:49:47;;;;;;;11.45;5.40;;;;;;;2.64;60.91;103235.41;5038792;28;20469;-75
2022/01/14 03:52:14;;;;;;;11.52;5.90;;;;;;;3.18;59.64;103229.56;5048028;28;20071;-75
2022/01/14 03:54:40;;;;;;;11.68;6.22;;;;;;;3.25;59.81;103219.63;5053728;28;20043;-75
2022/01/14 03:57:05;;;;;;;9.70;5.05;;;;;;;3.17;60.29;103220.06;5045831;28;20040;-75
2022/01/14 03:59:31;;;;;;;11.90;5.50;;;;;;;2.99;60.39;103217.50;5049556;28;20128;-75
2022/01/14 04:01:57;;;;;;;13.38;5.53;;;;;;;3.17;60.25;103210.69;5046980;28;20025;-75
2022/01/14 04:04:22;;;;;;;11.25;5.57;;;;;;;3.28;59.27;103210.34;5044839;28;20032;-75
2022/01/14 04:06:48;;;;;;;13.43;6.47;;;;;;;3.19;59.46;103200.47;5042922;28;20052;-75
2022/01/14 04:09:13;;;;;;;16.23;6.53;;;;;;;3.25;59.33;103204.22;5026193;28;20127;-75
2022/01/14 04:11:40;;;;;;;14.07;6.40;;;;;;;3.01;60.84;103199.63;5040130;28;20060;-76
2022/01/14 04:16:49;;;;;;;14.93;6.60;;;;;;;3.63;59.30;103193.16;5047153;28;20040;-75
2022/01/14 04:19:14;;;;;;;20.00;7.30;;;;;;;3.60;59.18;103193.03;5041207;28;20052;-75
2022/01/14 04:21:40;;;;;;;15.85;7.35;;;;;;;3.65;59.92;103193.22;5038925;28;20512;-75
2022/01/14 04:24:05;;;;;;;15.93;7.05;;;;;;;3.55;60.68;103191.94;5026857;28;20033;-75
2022/01/14 04:26:31;;;;;;;19.70;8.65;;;;;;;3.45;61.06;103194.00;5046542;28;20029;-76
2022/01/14 04:28:56;;;;;;;18.17;7.75;;;;;;;3.49;61.30;103193.31;5027918;28;20033;-75
2022/01/14 04:31:21;;;;;;;20.15;8.65;;;;;;;3.63;61.00;103190.56;5044012;28;20049;-75
2022/01/14 04:33:47;;;;;;;22.10;8.20;;;;;;;3.42;61.82;103191.31;5044756;28;20052;-76
2022/01/14 04:36:12;;;;;;;24.58;8.63;;;;;;;3.46;62.53;103191.50;5046910;28;20122;-75
2022/01/14 04:38:38;;;;;;;19.20;8.38;;;;;;;3.66;61.35;103183.00;5024810;28;20516;-75
2022/01/14 04:41:04;;;;;;;17.52;8.02;;;;;;;3.52;61.63;103180.63;5038048;28;20090;-75
2022/01/14 04:43:30;;;;;;;25.35;9.57;;;;;;;3.50;61.61;103178.00;5039003;28;20406;-75
2022/01/14 04:48:24;;;;;;;22.60;8.77;;;;;;;3.46;61.79;103172.63;5050988;28;20044;-75
2022/01/14 04:50:54;;;;;;;22.27;9.45;;;;;;;3.31;62.64;103166.81;5043462;28;20041;-75
2022/01/14 04:53:21;;;;;;;26.08;9.52;;;;;;;3.51;61.72;103159.22;5037579;28;20039;-76
2022/01/14 04:55:47;;;;;;;22.23;8.02;;;;;;;3.41;62.58;103154.44;5046306;28;20044;-75
2022/01/14 04:58:12;;;;;;;22.42;9.65;;;;;;;3.49;62.18;103150.53;5042765;28;20064;-75
2022/01/14 05:00:39;;;;;;;22.13;8.68;;;;;;;3.56;61.39;103152.59;5042882;28;20448;-75
2022/01/14 05:03:05;;;;;;;24.73;8.10;;;;;;;3.43;61.95;103144.22;5030609;28;20087;-75
2022/01/14 05:05:34;;;;;;;23.85;9.27;;;;;;;3.39;62.31;103143.22;5029796;28;20017;-75
2022/01/14 05:08:00;;;;;;;19.95;9.07;;;;;;;3.46;61.04;103139.22;5044460;28;20409;-75
2022/01/14 05:12:53;;;;;;;31.88;10.18;;;;;;;3.09;62.44;103154.63;5044894;28;20052;-75
2022/01/14 05:15:19;;;;;;;23.33;8.95;;;;;;;3.60;61.16;103149.34;5043958;28;20037;-76
2022/01/14 05:17:46;;;;;;;21.58;8.80;;;;;;;3.56;60.94;103151.69;5021551;28;20594;-76
2022/01/14 05:20:13;;;;;;;25.90;9.43;;;;;;;3.27;61.85;103157.19;5041179;28;20025;-75
2022/01/14 05:22:39;;;;;;;29.30;9.88;;;;;;;3.35;61.40;103156.72;5042177;28;20043;-75
2022/01/14 05:25:06;;;;;;;25.30;9.60;;;;;;;3.14;62.41;103155.72;5045247;28;20123;-75
2022/01/14 05:27:32;;;;;;;21.25;9.50;;;;;;;3.31;61.27;103154.81;5045446;28;20036;-75
2022/01/14 05:29:58;;;;;;;27.30;10.15;;;;;;;3.36;61.80;103162.75;5049344;28;20079;-75
2022/01/14 05:32:24;;;;;;;21.40;9.55;;;;;;;3.27;61.44;103157.19;5027615;28;20032;-76
2022/01/14 05:34:50;;;;;;;18.63;8.60;;;;;;;3.34;60.20;103149.81;5050715;28;20063;-75
2022/01/14 05:37:16;;;;;;;18.65;9.13;;;;;;;3.21;60.85;103155.22;5040863;28;20506;-76
2022/01/14 05:39:42;;;;;;;23.50;9.65;;;;;;;3.46;60.28;103154.63;5049545;28;20029;-75
2022/01/14 05:42:08;;;;;;;24.08;8.75;;;;;;;3.17;61.25;103164.47;5026790;28;20144;-75
2022/01/14 05:44:33;;;;;;;17.52;8.05;;;;;;;3.06;61.45;103163.06;5047915;28;20030;-75
2022/01/14 05:47:00;;;;;;;19.23;8.48;;;;;;;3.00;61.36;103160.22;5043622;28;20392;-75
2022/01/14 05:49:27;;;;;;;19.42;8.25;;;;;;;3.06;61.50;103167.31;5026552;28;20033;-75
2022/01/14 05:51:53;;;;;;;17.77;8.20;;;;;;;3.05;61.97;103165.56;5042574;28;20128;-75
2022/01/14 05:54:19;;;;;;;24.05;8.90;;;;;;;3.23;61.23;103167.31;5043697;28;20124;-75
2022/01/14 05:56:45;;;;;;;18.65;8.68;;;;;;;3.07;61.69;103169.09;5042187;28;20029;-75
2022/01/14 05:59:11;;;;;;;23.25;8.80;;;;;;;3.34;61.38;103169.53;5044590;28;20750;-75
2022/01/14 06:01:38;;;;;;;20.15;8.15;;;;;;;3.57;60.30;103164.63;5045817;28;20045;-75
2022/01/14 06:04:04;;;;;;;19.65;9.00;;;;;;;3.11;62.40;103171.88;5032295;28;20107;-75
2022/01/14 06:06:31;;;;;;;19.00;8.80;;;;;;;3.28;62.34;103167.50;5042818;28;20105;-75
2022/01/14 06:08:57;;;;;;;21.20;8.85;;;;;;;3.42;61.23;103163.94;5029001;28;20041;-75
2022/01/14 06:11:23;;;;;;;21.00;9.05;;;;;;;3.30;61.78;103175.31;5049673;28;20085;-76
2022/01/14 06:13:49;;;;;;;24.95;9.02;;;;;;;3.13;63.43;103174.50;5042867;28;20025;-75
2022/01/14 06:16:15;;;;;;;23.10;9.50;;;;;;;3.08;63.36;103175.97;5048804;28;20052;-76
2022/01/14 06:18:40;;;;;;;21.25;9.13;;;;;;;3.43;62.91;103181.06;5046775;28;20040;-75
2022/01/14 06:21:06;;;;;;;19.75;8.27;;;;;;;3.39;62.63;103176.63;5050774;28;20033;-75
2022/01/14 06:23:32;;;;;;;17.98;8.43;;;;;;;3.17;63.36;103177.31;5044728;28;20044;-76
2022/01/14 06:25:58;;;;;;;17.33;7.45;;;;;;;3.19;62.72;103178.25;5043951;28;20049;-76
2022/01/14 06:28:23;;;;;;;16.52;7.63;;;;;;;3.23;61.96;103179.28;5043059;28;20037;-75
2022/01/14 06:30:49;;;;;;;17.20;7.72;;;;;;;3.56;60.29;103180.84;5046125;28;20194;-76
2022/01/14 06:33:15;;;;;;;13.95;6.75;;;;;;;3.52;58.98;103180.63;5034999;28;20037;-75
2022/01/14 06:35:41;;;;;;;14.00;6.47;;;;;;;3.56;59.21;103170.56;5044429;28;20510;-75
2022/01/14 06:38:06;;;;;;;16.73;7.15;;;;;;;3.55;59.20;103160.19;5028641;28;20056;-75
2022/01/14 06:40:32;;;;;;;14.73;6.63;;;;;;;3.52;59.27;103157.50;5045898;28;20489;-76
2022/01/14 06:42:58;;;;;;;17.67;7.57;;;;;;;3.30;60.64;103168.50;5042732;28;20032;-76
2022/01/14 06:45:24;;;;;;;17.50;8.43;;;;;;;3.41;60.34;103163.84;5022168;28;20056;-76
2022/01/14 06:47:50;;;;;;;18.38;7.95;;;;;;;2.99;61.28;103160.13;5048564;28;20040;-75
2022/01/14 06:50:17;;;;;;;16.85;8.13;;;;;;;3.07;61.81;103158.81;5047399;28;20104;-75
2022/01/14 06:52:42;;;;;;;21.13;9.15;;;;;;;3.50;60.42;103164.25;5030341;28;20044;-75
2022/01/14 06:55:09;;;;;;;20.45;9.10;;;;;;;3.28;61.83;103167.50;5048323;28;20033;-75
2022/01/14 06:57:35;;;;;;;25.70;9.60;;;;;;;3.24;62.45;103169.09;5051132;28;20032;-75
2022/01/14 07:00:07;;;;;;;24.35;10.88;;;;;;;3.34;62.52;103167.81;5043209;28;20408;-76
2022/01/14 07:02:32;;;;;;;22.88;9.93;;;;;;;3.28;62.94;103164.94;5030510;28;20033;-75
2022/01/14 07:04:58;;;;;;;21.70;8.70;;;;;;;3.37;62.18;103167.94;5030345;28;20021;-75
2022/01/14 07:07:23;;;;;;;21.33;8.75;;;;;;;3.29;62.70;103168.41;5036370;28;20032;-76
2022/01/14 07:09:58;;;;;;;22.60;9.18;;;;;;;3.32;62.54;103168.53;5045552;28;20057;-75
2022/01/14 07:12:38;;;;;;;22.70;9.27;;;;;;;3.24;62.57;103157.94;5044851;28;20910;-75
2022/01/14 07:15:10;;;;;;;28.98;11.50;;;;;;;3.35;62.72;103164.44;5043183;28;20470;-76
2022/01/14 07:17:35;;;;;;;37.08;16.13;;;;;;;3.38;62.67;103144.03;5048352;28;20040;-75
2022/01/14 07:20:06;;;;;;;27.58;12.10;;;;;;;3.31;62.72;103149.69;5042359;28;20041;-75
2022/01/14 07:22:32;;;;;;;34.47;17.50;;;;;;;3.54;62.11;103137.91;5047368;28;20041;-75
2022/01/14 07:24:58;;;;;;;25.52;12.15;;;;;;;3.40;62.80;103146.66;5049048;28;20552;-75
2022/01/14 07:27:24;;;;;;;26.45;9.48;;;;;;;3.35;63.51;103138.75;5031634;28;20030;-76
2022/01/14 07:29:50;;;;;;;20.55;8.77;;;;;;;3.44;62.69;103139.16;5050336;28;20528;-75
2022/01/14 07:32:16;;;;;;;20.00;8.40;;;;;;;3.71;61.65;103140.41;5042820;28;20041;-75
2022/01/14 07:34:41;;;;;;;19.17;8.27;;;;;;;3.46;62.83;103144.38;5030076;28;20044;-75
2022/01/14 07:37:07;;;;;;;23.67;7.90;;;;;;;3.80;61.10;103139.94;5040256;28;20040;-76
2022/01/14 07:39:33;;;;;;;24.48;9.70;;;;;;;3.28;63.16;103128.97;5043897;28;20033;-78
2022/01/14 07:41:58;;;;;;;24.55;10.10;;;;;;;3.43;62.48;103133.94;5046455;28;20567;-78
2022/01/14 07:44:24;;;;;;;18.10;8.18;;;;;;;3.21;62.57;103142.38;5037216;28;20037;-79
2022/01/14 07:46:49;;;;;;;17.70;7.93;;;;;;;3.68;61.33;103135.16;5045813;28;20512;-78
2022/01/14 07:49:15;;;;;;;18.08;7.65;;;;;;;3.60;62.10;103143.31;5048399;28;20047;-78
2022/01/14 07:51:41;;;;;;;20.02;7.97;;;;;;;3.42;61.83;103140.81;5045271;28;20090;-78
2022/01/14 07:54:07;;;;;;;15.23;7.32;;;;;;;3.50;61.38;103146.28;5031728;28;20037;-78
2022/01/14 07:56:38;;;;;;;16.02;7.93;;;;;;;3.32;61.89;103150.56;5046275;28;20098;-79
2022/01/14 07:59:06;;;;;;;18.17;7.82;;;;;;;3.19;62.61;103152.56;5045337;28;20075;-78
2022/01/14 08:01:35;;;;;;;18.30;7.60;;;;;;;3.33;61.96;103162.63;5047950;28;20038;-78
2022/01/14 08:04:01;;;;;;;20.60;7.18;;;;;;;3.42;62.85;103165.59;5045777;28;20053;-79
2022/01/14 08:06:27;;;;;;;19.02;8.43;;;;;;;3.47;62.71;103164.13;5046569;28;20033;-78
2022/01/14 08:08:53;;;;;;;19.42;8.25;;;;;;;3.59;61.86;103173.28;5046543;28;20075;-79
2022/01/14 08:11:19;;;;;;;17.20;8.35;;;;;;;3.59;62.38;103178.41;5041965;28;20405;-78
2022/01/14 08:13:44;;;;;;;21.05;8.63;;;;;;;3.61;62.28;103173.34;5045741;28;20045;-78
2022/01/14 08:16:10;;;;;;;18.40;7.90;;;;;;;3.55;63.21;103166.22;5050545;28;20033;-79
2022/01/14 08:18:36;;;;;;;19.25;9.05;;;;;;;3.70;62.02;103166.94;5047593;28;20616;-78
2022/01/14 08:21:03;;;;;;;22.75;11.40;;;;;;;3.53;62.74;103166.97;5043307;28;20049;-78
2022/01/14 08:23:28;;;;;;;24.13;13.23;;;;;;;3.64;62.47;103176.03;5046333;28;20059;-79
2022/01/14 08:25:55;;;;;;;29.05;14.82;;;;;;;3.56;62.55;103183.41;5044293;28;20025;-78
2022/01/14 08:28:21;;;;;;;24.35;12.95;;;;;;;3.64;62.39;103178.63;5041568;28;20425;-78
2022/01/14 08:30:47;;;;;;;23.45;11.90;;;;;;;3.51;62.19;103181.44;5052240;28;20047;-78
2022/01/14 08:33:13;;;;;;;22.30;10.10;;;;;;;3.49;63.43;103180.47;5044838;28;20506;-78
2022/01/14 08:35:39;;;;;;;20.92;9.10;;;;;;;3.28;63.15;103179.50;5052988;28;20028;-79
2022/01/14 08:38:06;;;;;;;17.63;8.95;;;;;;;3.58;63.07;103176.66;5045980;28;20401;-78
2022/01/14 08:40:32;;;;;;;20.50;10.63;;;;;;;3.68;62.73;103178.84;5047712;28;20033;-78
2022/01/14 08:42:58;;;;;;;17.13;9.65;;;;;;;3.47;64.00;103183.00;5046874;28;20044;-78
2022/01/14 08:45:23;;;;;;;21.30;8.02;;;;;;;3.75;63.02;103173.16;5052415;28;20033;-78
2022/01/14 08:47:53;;;;;;;19.15;9.77;;;;;;;3.67;62.55;103171.03;5038963;28;20068;-78
2022/01/14 08:50:29;;;;;;;19.75;12.60;;;;;;;3.80;62.51;103163.09;5029952;28;20053;-78
2022/01/14 08:52:55;;;;;;;20.17;9.25;;;;;;;3.70;62.68;103171.19;5044472;28;20039;-78
2022/01/14 08:55:22;;;;;;;17.98;8.68;;;;;;;3.72;62.61;103165.28;5046387;28;20048;-78
2022/01/14 08:57:48;;;;;;;18.38;8.20;;;;;;;3.66;62.42;103165.00;5041205;28;20115;-78
2022/01/14 09:00:15;;;;;;;17.80;8.80;;;;;;;3.53;63.80;103169.53;5044873;28;20148;-78
2022/01/14 09:02:41;;;;;;;17.98;7.70;;;;;;;3.74;62.58;103165.38;5027221;28;20041;-78
2022/01/14 09:05:08;;;;;;;16.05;8.15;;;;;;;3.83;62.34;103165.78;5033853;28;20074;-78
2022/01/14 09:07:34;;;;;;;17.10;8.40;;;;;;;3.74;62.78;103166.25;5040183;28;20066;-78
2022/01/14 09:10:00;;;;;;;18.42;8.93;;;;;;;3.81;62.67;103164.84;5028658;28;20057;-78
2022/01/14 09:12:25;;;;;;;17.90;9.63;;;;;;;3.80;62.50;103170.81;5043976;28;20033;-78
2022/01/14 09:14:51;;;;;;;21.35;9.07;;;;;;;3.59;62.98;103167.25;5044625;28;20393;-78
2022/01/14 09:17:17;;;;;;;18.15;8.43;;;;;;;3.88;62.29;103161.72;5000019;28;20134;-78
2022/01/14 09:19:44;;;;;;;14.48;7.90;;;;;;;3.95;61.88;103155.16;5037866;28;20103;-78
2022/01/14 09:22:15;;;;;;;18.65;8.55;;;;;;;3.75;62.49;103165.44;5036222;28;20033;-78
2022/01/14 09:24:41;;;;;;;20.45;9.50;;;;;;;3.59;63.64;103167.25;5042991;28;20533;-78
2022/01/14 09:27:07;;;;;;;18.02;8.75;;;;;;;3.94;62.85;103156.84;5044962;28;20048;-78
2022/01/14 09:29:32;;;;;;;20.20;8.43;;;;;;;3.83;62.87;103146.91;5044237;28;20025;-78
2022/01/14 09:31:58;;;;;;;18.23;8.40;;;;;;;4.01;62.48;103137.44;5028032;28;20037;-78
2022/01/14 09:34:23;;;;;;;17.58;7.93;;;;;;;3.70;63.91;103141.22;5046063;28;20037;-78
2022/01/14 09:36:49;;;;;;;15.05;7.72;;;;;;;3.77;63.67;103145.84;5045872;28;20041;-78
2022/01/14 09:39:15;;;;;;;13.93;6.60;;;;;;;3.79;63.56;103143.31;5049840;28;20613;-78
2022/01/14 09:41:40;;;;;;;14.57;7.13;;;;;;;4.02;63.46;103146.91;5047569;28;20049;-79
2022/01/14 09:44:06;;;;;;;14.88;8.82;;;;;;;4.20;62.58;103142.56;5054521;28;20540;-78
2022/01/14 09:46:31;;;;;;;17.67;7.55;;;;;;;4.14;62.85;103147.50;5049343;28;20037;-78
2022/01/14 09:48:57;;;;;;;15.43;7.20;;;;;;;4.12;63.30;103143.94;5050938;28;20131;-78
2022/01/14 09:51:23;;;;;;;14.80;7.43;;;;;;;4.17;62.03;103145.91;5044163;28;20493;-78
2022/01/14 09:53:49;;;;;;;14.15;7.05;;;;;;;4.19;63.02;103146.88;5043690;28;20053;-78
2022/01/14 09:56:17;;;;;;;17.90;8.32;;;;;;;4.17;62.93;103143.31;5044280;28;20104;-78
2022/01/14 09:58:47;;;;;;;16.15;7.22;;;;;;;3.99;63.65;103147.63;5050164;28;20072;-78
2022/01/14 10:01:23;;;;;;;19.73;8.75;;;;;;;4.36;61.79;103142.44;5050452;28;20106;-78
2022/01/14 10:03:53;;;;;;;18.90;8.68;;;;;;;4.11;63.34;103158.50;5030289;28;20025;-78
2022/01/14 10:06:40;;;;;;;15.88;7.93;;;;;;;4.31;63.42;103156.81;5049620;28;20032;-78
2022/01/14 10:09:20;;;;;;;18.83;8.95;;;;;;;4.24;63.22;103162.50;5040928;28;20033;-78
2022/01/14 10:12:13;;;;;;;18.83;7.70;;;;;;;4.26;63.18;103145.41;5042480;28;20478;-78
2022/01/14 10:15:09;;;;;;;22.98;9.38;;;;;;;4.33;62.64;103152.59;5042575;28;20021;-78
2022/01/14 10:17:40;;;;;;;15.88;7.93;;;;;;;4.48;62.45;103150.66;5037450;28;20025;-78
2022/01/14 10:20:08;;;;;;;19.98;8.43;;;;;;;4.32;62.47;103154.28;5048040;28;20033;-78
2022/01/14 10:22:39;;;;;;;16.80;8.00;;;;;;;4.30;63.11;103155.91;5038962;28;20057;-78
2022/01/14 10:25:14;;;;;;;17.48;8.05;;;;;;;4.32;63.60;103163.69;5045465;28;20521;-78
2022/01/14 10:27:45;;;;;;;16.15;7.65;;;;;;;4.50;63.11;103161.88;5025062;28;20037;-78
2022/01/14 10:30:13;;;;;;;15.93;7.72;;;;;;;4.48;62.80;103145.50;5033043;28;20032;-78
2022/01/14 10:32:41;;;;;;;14.63;7.10;;;;;;;4.45;63.17;103153.09;5045145;28;20028;-78
2022/01/14 10:35:09;;;;;;;13.40;6.93;;;;;;;4.34;62.98;103150.09;5042322;28;20437;-78
2022/01/14 10:37:36;;;;;;;14.68;6.75;;;;;;;4.40;63.61;103159.75;5040766;28;20041;-78
2022/01/14 10:40:13;;;;;;;14.68;7.00;;;;;;;4.29;63.38;103156.72;5039351;28;20508;-78
2022/01/14 10:42:40;;;;;;;16.58;7.40;;;;;;;4.32;63.96;103151.69;5038361;28;20060;-78
2022/01/14 10:45:22;;;;;;;16.67;7.90;;;;;;;4.32;64.15;103149.13;5034494;28;20113;-78
2022/01/14 10:47:55;;;;;;;19.95;8.30;;;;;;;4.36;64.31;103160.44;5041934;28;20048;-78
2022/01/14 10:50:48;;;;;;;14.70;7.07;;;;;;;4.46;63.72;103157.44;5041638;28;20035;-80
2022/01/14 10:53:22;;;;;;;17.00;6.95;;;;;;;4.41;63.86;103158.94;5028120;28;20021;-78
2022/01/14 10:55:53;;;;;;;12.45;6.88;;;;;;;4.68;62.69;103157.50;5042428;28;20037;-78
2022/01/14 10:58:32;;;;;;;15.15;7.70;;;;;;;4.74;62.88;103151.72;5048204;28;20402;-78
2022/01/14 11:01:13;;;;;;;14.70;7.07;;;;;;;4.56;63.69;103153.53;5034371;28;20037;-78
2022/01/14 11:03:42;;;;;;;13.55;7.38;;;;;;;4.45;63.99;103147.97;5032993;28;20433;-78
2022/01/14 11:06:27;;;;;;;16.17;7.60;;;;;;;4.47;63.12;103141.16;5038708;28;20115;-78
2022/01/14 11:08:57;;;;;;;;;;;;;;;4.61;64.06;103131.47;5045911;28;20032;-78
2022/01/14 11:11:27;;;;;;;14.93;7.45;;;;;;;4.64;62.92;103129.91;5049515;28;20003;-78
2022/01/14 11:13:52;;;;;;;14.60;6.45;;;;;;;4.61;62.96;103124.63;5040072;28;20124;-78
2022/01/14 11:16:18;;;;;;;14.77;7.25;;;;;;;4.69;63.37;103115.50;5052338;28;20047;-78
2022/01/14 11:18:46;;;;;;;16.17;7.60;;;;;;;4.66;64.09;103115.38;5046099;28;20502;-78
2022/01/14 11:23:56;;;;;;;13.05;7.13;;;;;;;4.83;63.92;103109.22;5040677;28;20075;-78
2022/01/14 11:26:27;;;;;;;12.32;6.43;;;;;;;4.77;63.67;103108.06;5042383;28;20045;-79
2022/01/14 11:28:53;;;;;;;16.83;7.32;;;;;;;5.00;63.73;103109.84;5039267;28;20485;-78
2022/01/14 11:31:30;;;;;;;11.18;6.47;;;;;;;4.93;62.71;103110.44;5045995;28;20048;-78
2022/01/14 11:33:58;;;;;;;17.17;7.28;;;;;;;5.03;63.56;103112.56;5039906;28;20033;-78
2022/01/14 11:36:25;;;;;;;13.52;6.68;;;;;;;4.92;63.46;103121.56;5048192;28;20495;-78
2022/01/14 11:38:50;;;;;;;13.07;7.25;;;;;;;5.00;62.88;103112.44;5040001;28;20036;-75
2022/01/14 11:41:58;;;;;;;13.00;7.15;;;;;;;5.02;63.27;103112.50;5029868;28;20082;-76
2022/01/14 11:47:36;;;;;;;13.27;6.22;;;;;;;4.97;63.22;103114.88;5044956;28;20041;-75
2022/01/14 11:50:05;;;;;;;17.95;7.30;;;;;;;5.07;61.84;103104.13;5026362;28;20064;-75
2022/01/14 11:52:44;;;;;;;15.15;7.32;;;;;;;5.11;62.99;103107.72;5047616;28;20133;-80
2022/01/14 11:55:22;;;;;;;14.98;7.82;;;;;;;5.07;62.27;103098.09;5044755;28;20044;-75
2022/01/14 11:57:50;;;;;;;12.93;7.32;;;;;;;5.22;61.91;103102.16;5031159;28;20033;-75
2022/01/14 12:00:25;;;;;;;21.77;8.38;;;;;;;5.19;61.40;103102.03;5040491;28;20041;-75